createdAt,value
2023-03-10T00:00:09.461Z,8.70
2023-03-10T00:02:12.730Z,11.38
2023-03-10T00:04:15.742Z,10.50
2023-03-10T00:06:20.812Z,10.82
2023-03-10T00:08:22.878Z,10.60
2023-03-10T00:10:24.936Z,9.50
2023-03-10T00:12:28.042Z,9.38
2023-03-10T00:14:30.261Z,7.80
2023-03-10T00:16:32.355Z,5.97
2023-03-10T00:18:34.588Z,8.32
2023-03-10T00:20:36.636Z,9.55
2023-03-10T00:22:39.979Z,6.75
2023-03-10T00:24:42.041Z,6.70
2023-03-10T00:26:45.750Z,11.07
2023-03-10T00:28:48.078Z,8.55
2023-03-10T00:30:56.402Z,10.32
2023-03-10T00:32:58.494Z,9.00
2023-03-10T00:35:00.489Z,5.50
2023-03-10T00:37:02.492Z,6.63
2023-03-10T00:39:05.463Z,6.50
2023-03-10T00:41:10.750Z,6.43
2023-03-10T00:43:12.896Z,7.63
2023-03-10T00:45:14.903Z,13.25
2023-03-10T00:47:16.944Z,10.15
2023-03-10T00:49:19.399Z,4.32
2023-03-10T00:51:22.438Z,8.50
2023-03-10T00:53:25.101Z,6.57
2023-03-10T00:55:27.254Z,4.57
2023-03-10T00:57:29.252Z,5.53
2023-03-10T00:59:47.913Z,4.85
2023-03-10T01:01:52.026Z,5.20
2023-03-10T01:03:56.489Z,7.85
2023-03-10T01:05:58.530Z,6.70
2023-03-10T01:08:00.671Z,6.78
2023-03-10T01:10:02.664Z,7.22
2023-03-10T01:12:04.907Z,8.57
2023-03-10T01:14:08.517Z,5.32
2023-03-10T01:16:10.602Z,9.60
2023-03-10T01:18:12.669Z,6.03
2023-03-10T01:20:16.890Z,4.53
2023-03-10T01:22:20.265Z,5.68
2023-03-10T01:24:22.364Z,3.50
2023-03-10T01:26:24.366Z,3.63
2023-03-10T01:28:26.672Z,2.30
2023-03-10T01:30:29.957Z,2.60
2023-03-10T01:32:32.125Z,2.15
2023-03-10T01:34:35.227Z,5.28
2023-03-10T01:36:37.234Z,2.85
2023-03-10T01:38:39.887Z,3.25
2023-03-10T01:40:48.504Z,4.25
2023-03-10T01:42:50.573Z,4.38
2023-03-10T01:44:58.774Z,4.38
2023-03-10T01:47:01.005Z,5.30
2023-03-10T01:49:09.221Z,3.63
2023-03-10T01:51:11.896Z,4.60
2023-03-10T01:53:17.156Z,11.60
2023-03-10T01:55:25.700Z,8.25
2023-03-10T01:57:31.703Z,8.10
2023-03-10T01:59:34.872Z,8.55
2023-03-10T02:01:37.677Z,5.45
2023-03-10T02:03:46.047Z,13.88
2023-03-10T02:05:53.883Z,9.18
2023-03-10T02:07:56.643Z,8.60
2023-03-10T02:09:59.552Z,9.35
2023-03-10T02:12:04.410Z,6.47
2023-03-10T02:14:06.851Z,9.27
2023-03-10T02:16:09.125Z,10.80
2023-03-10T02:18:14.776Z,8.23
2023-03-10T02:20:27.416Z,9.48
2023-03-10T02:22:29.939Z,10.45
2023-03-10T02:24:35.563Z,6.95
2023-03-10T02:26:42.109Z,9.60
2023-03-10T02:28:45.312Z,8.70
2023-03-10T02:30:51.234Z,8.38
2023-03-10T02:32:58.790Z,9.32
2023-03-10T02:35:00.877Z,8.07
2023-03-10T02:37:02.846Z,8.00
2023-03-10T02:39:05.021Z,6.97
2023-03-10T02:41:16.582Z,6.43
2023-03-10T02:43:25.366Z,5.75
2023-03-10T02:45:33.293Z,10.80
2023-03-10T02:47:35.374Z,9.48
2023-03-10T02:49:37.987Z,11.45
2023-03-10T02:51:43.808Z,8.38
2023-03-10T02:53:45.858Z,9.40
2023-03-10T02:55:48.095Z,10.60
2023-03-10T02:57:50.122Z,4.50
2023-03-10T02:59:52.331Z,8.25
2023-03-10T03:01:54.549Z,6.25
2023-03-10T03:03:57.479Z,9.15
2023-03-10T03:05:59.739Z,8.40
2023-03-10T03:08:01.724Z,9.27
2023-03-10T03:10:04.631Z,8.50
2023-03-10T03:12:07.261Z,7.97
2023-03-10T03:14:09.508Z,9.55
2023-03-10T03:16:12.171Z,8.07
2023-03-10T03:18:14.271Z,10.55
2023-03-10T03:20:17.420Z,12.90
2023-03-10T03:22:19.417Z,9.57
2023-03-10T03:24:21.461Z,7.15
2023-03-10T03:26:25.762Z,13.02
2023-03-10T03:28:27.796Z,14.95
2023-03-10T03:30:30.268Z,9.63
2023-03-10T03:32:32.304Z,7.63
2023-03-10T03:34:34.383Z,9.55
2023-03-10T03:36:37.625Z,8.70
2023-03-10T03:38:40.119Z,8.45
2023-03-10T03:40:42.203Z,9.93
2023-03-10T03:42:46.691Z,11.00
2023-03-10T03:44:48.711Z,9.75
2023-03-10T03:46:50.745Z,15.23
2023-03-10T03:48:52.738Z,8.85
2023-03-10T03:50:55.034Z,7.85
2023-03-10T03:52:57.611Z,6.05
2023-03-10T03:54:59.843Z,10.30
2023-03-10T03:57:02.109Z,11.50
2023-03-10T03:59:04.120Z,9.02
2023-03-10T04:01:06.189Z,14.27
2023-03-10T04:03:08.466Z,13.55
2023-03-10T04:05:11.078Z,13.15
2023-03-10T04:07:13.126Z,11.30
2023-03-10T04:09:15.144Z,12.23
2023-03-10T04:11:17.182Z,9.98
2023-03-10T04:13:19.166Z,15.05
2023-03-10T04:15:21.377Z,10.73
2023-03-10T04:17:23.334Z,10.70
2023-03-10T04:19:25.692Z,11.13
2023-03-10T04:21:27.858Z,12.13
2023-03-10T04:23:29.825Z,9.38
2023-03-10T04:25:31.823Z,10.57
2023-03-10T04:27:34.415Z,9.90
2023-03-10T04:29:37.611Z,8.95
2023-03-10T04:31:39.821Z,9.30
2023-03-10T04:33:42.389Z,9.77
2023-03-10T04:35:47.779Z,9.52
2023-03-10T04:37:49.812Z,10.45
2023-03-10T04:39:51.908Z,9.88
2023-03-10T04:41:54.056Z,9.32
2023-03-10T04:43:56.212Z,8.02
2023-03-10T04:45:58.743Z,8.77
2023-03-10T04:48:00.757Z,6.07
2023-03-10T04:50:03.188Z,7.60
2023-03-10T04:52:05.526Z,6.15
2023-03-10T04:54:07.821Z,8.30
2023-03-10T04:56:10.861Z,5.43
2023-03-10T04:58:12.838Z,7.22
2023-03-10T05:00:15.498Z,7.20
2023-03-10T05:02:17.917Z,5.97
2023-03-10T05:04:20.018Z,4.70
2023-03-10T05:06:22.484Z,7.75
2023-03-10T05:08:24.432Z,5.65
2023-03-10T05:10:26.540Z,4.78
2023-03-10T05:12:28.563Z,5.10
2023-03-10T05:14:30.603Z,4.85
2023-03-10T05:16:32.794Z,6.03
2023-03-10T05:18:34.807Z,4.28
2023-03-10T05:20:38.023Z,7.82
2023-03-10T05:22:40.804Z,4.07
2023-03-10T05:24:43.219Z,3.60
2023-03-10T05:26:45.253Z,4.60
2023-03-10T05:28:47.175Z,5.05
2023-03-10T05:30:49.201Z,4.05
2023-03-10T05:32:51.243Z,2.95
2023-03-10T05:34:53.301Z,3.83
2023-03-10T05:36:56.536Z,2.75
2023-03-10T05:38:58.544Z,4.50
2023-03-10T05:41:00.566Z,4.25
2023-03-10T05:43:02.870Z,2.83
2023-03-10T05:45:06.439Z,2.60
2023-03-10T05:47:08.538Z,2.55
2023-03-10T05:49:11.043Z,3.15
2023-03-10T05:51:13.763Z,3.75
2023-03-10T05:53:16.135Z,2.17
2023-03-10T05:55:20.033Z,1.85
2023-03-10T05:57:22.079Z,1.85
2023-03-10T05:59:24.076Z,1.48
2023-03-10T06:01:26.196Z,1.65
2023-03-10T06:03:30.315Z,1.67
2023-03-10T06:05:32.400Z,2.15
2023-03-10T06:07:35.562Z,2.05
2023-03-10T06:09:37.610Z,1.77
2023-03-10T06:11:39.566Z,1.65
2023-03-10T06:13:41.517Z,2.10
2023-03-10T06:15:43.448Z,1.10
2023-03-10T06:17:45.392Z,2.67
2023-03-10T06:19:47.386Z,1.85
2023-03-10T06:21:50.095Z,1.35
2023-03-10T06:23:52.599Z,1.15
2023-03-10T06:25:59.089Z,0.90
2023-03-10T06:28:01.105Z,0.85
2023-03-10T06:30:03.489Z,0.85
2023-03-10T06:32:06.302Z,1.50
2023-03-10T06:34:08.383Z,2.95
2023-03-10T06:36:12.073Z,0.95
2023-03-10T06:38:14.398Z,2.17
2023-03-10T06:40:16.616Z,0.80
2023-03-10T06:42:18.675Z,0.65
2023-03-10T06:44:20.811Z,0.52
2023-03-10T06:46:23.114Z,0.80
2023-03-10T06:48:25.287Z,0.30
2023-03-10T06:50:29.340Z,0.43
2023-03-10T06:52:34.914Z,0.28
2023-03-10T06:54:37.397Z,0.80
2023-03-10T06:56:39.404Z,0.40
2023-03-10T06:58:42.215Z,0.50
2023-03-10T07:00:44.302Z,0.45
2023-03-10T07:02:46.424Z,0.40
2023-03-10T07:04:48.663Z,0.40
2023-03-10T07:06:51.150Z,0.63
2023-03-10T07:08:54.494Z,0.60
2023-03-10T07:10:56.928Z,0.63
2023-03-10T07:12:59.351Z,0.77
2023-03-10T07:15:01.498Z,0.90
2023-03-10T07:17:04.373Z,0.80
2023-03-10T07:19:06.692Z,0.68
2023-03-10T07:21:10.527Z,0.73
2023-03-10T07:23:13.198Z,0.40
2023-03-10T07:25:15.490Z,1.00
2023-03-10T07:27:17.617Z,4.03
2023-03-10T07:29:20.046Z,1.02
2023-03-10T07:31:22.286Z,2.03
2023-03-10T07:33:24.356Z,2.63
2023-03-10T07:35:26.512Z,2.67
2023-03-10T07:37:28.578Z,0.57
2023-03-10T07:39:30.728Z,0.63
2023-03-10T07:41:32.794Z,0.47
2023-03-10T07:43:34.856Z,1.58
2023-03-10T07:45:38.051Z,0.88
2023-03-10T07:47:40.101Z,1.33
2023-03-10T07:49:47.088Z,1.88
2023-03-10T07:51:49.266Z,0.32
2023-03-10T07:53:51.412Z,0.82
2023-03-10T07:55:53.974Z,0.98
2023-03-10T07:57:57.749Z,1.13
2023-03-10T08:00:00.243Z,1.10
2023-03-10T08:02:02.280Z,0.60
2023-03-10T08:04:05.410Z,1.05
2023-03-10T08:06:08.029Z,0.82
2023-03-10T08:08:11.088Z,1.30
2023-03-10T08:10:13.773Z,0.85
2023-03-10T08:12:15.778Z,0.90
2023-03-10T08:14:20.963Z,1.17
2023-03-10T08:16:24.042Z,0.95
2023-03-10T08:18:26.565Z,0.93
2023-03-10T08:20:28.666Z,1.60
2023-03-10T08:22:30.795Z,0.80
2023-03-10T08:24:33.101Z,1.25
2023-03-10T08:26:35.576Z,0.90
2023-03-10T08:28:39.066Z,1.13
2023-03-10T08:30:57.058Z,1.55
2023-03-10T08:33:04.083Z,1.00
2023-03-10T08:35:07.246Z,1.00
2023-03-10T08:37:10.729Z,2.72
2023-03-10T08:39:13.530Z,4.35
2023-03-10T08:41:19.870Z,1.48
2023-03-10T08:43:21.958Z,1.25
2023-03-10T08:45:24.241Z,2.33
2023-03-10T08:47:29.285Z,3.25
2023-03-10T08:49:32.860Z,2.17
2023-03-10T08:51:35.696Z,1.30
2023-03-10T08:53:39.102Z,1.17
2023-03-10T08:55:41.886Z,1.55
2023-03-10T08:57:43.943Z,0.65
2023-03-10T08:59:46.005Z,2.60
2023-03-10T09:01:48.353Z,1.30
2023-03-10T09:03:50.548Z,0.50
2023-03-10T09:05:52.857Z,2.25
2023-03-10T09:07:56.175Z,0.60
2023-03-10T09:09:58.564Z,0.40
2023-03-10T09:12:00.709Z,0.55
2023-03-10T09:14:04.225Z,0.30
2023-03-10T09:16:08.220Z,0.50
2023-03-10T09:18:13.259Z,1.63
2023-03-10T09:20:15.940Z,0.45
2023-03-10T09:22:18.060Z,0.50
2023-03-10T09:24:20.282Z,0.20
2023-03-10T09:26:22.920Z,0.70
2023-03-10T09:28:25.396Z,0.32
2023-03-10T09:30:27.752Z,1.20
2023-03-10T09:32:30.050Z,4.72
2023-03-10T09:34:32.451Z,0.22
2023-03-10T09:36:35.529Z,1.23
2023-03-10T09:38:38.098Z,0.63
2023-03-10T09:40:45.352Z,0.30
2023-03-10T09:42:49.195Z,0.82
2023-03-10T09:44:58.286Z,0.60
2023-03-10T09:47:11.318Z,0.28
2023-03-10T09:49:17.105Z,0.20
2023-03-10T09:51:23.191Z,0.77
2023-03-10T09:53:29.829Z,1.00
2023-03-10T09:55:44.971Z,0.75
2023-03-10T09:57:54.333Z,1.90
2023-03-10T10:00:02.553Z,0.20
2023-03-10T10:02:19.226Z,0.17
2023-03-10T10:04:30.706Z,1.10
2023-03-10T10:06:35.777Z,0.17
2023-03-10T10:08:49.065Z,2.58
2023-03-10T10:10:56.736Z,0.70
2023-03-10T10:13:03.540Z,0.40
2023-03-10T10:15:17.256Z,0.40
2023-03-10T10:17:23.022Z,0.10
2023-03-10T10:19:27.831Z,0.20
2023-03-10T10:21:44.344Z,0.20
2023-03-10T10:23:50.988Z,0.40
2023-03-10T10:25:54.920Z,1.50
2023-03-10T10:28:01.536Z,1.23
2023-03-10T10:30:09.941Z,0.38
2023-03-10T10:32:15.135Z,2.92
2023-03-10T10:34:21.756Z,2.67
2023-03-10T10:36:27.100Z,1.85
2023-03-10T10:38:32.128Z,0.52
2023-03-10T10:40:46.857Z,3.63
2023-03-10T10:42:54.296Z,2.75
2023-03-10T10:45:02.454Z,0.85
2023-03-10T10:47:05.122Z,1.75
2023-03-10T10:49:18.116Z,0.10
2023-03-10T10:51:21.032Z,0.45
2023-03-10T10:53:24.782Z,0.32
2023-03-10T10:55:34.974Z,0.57
2023-03-10T10:57:38.965Z,0.10
2023-03-10T10:59:41.080Z,0.77
2023-03-10T11:01:47.681Z,0.90
2023-03-10T11:04:03.557Z,0.60
2023-03-10T11:06:11.845Z,0.30
2023-03-10T11:08:19.499Z,1.05
2023-03-10T11:10:28.198Z,0.45
2023-03-10T11:12:38.711Z,1.60
2023-03-10T11:14:45.681Z,0.20
2023-03-10T11:16:56.092Z,0.40
2023-03-10T11:19:08.691Z,0.88
2023-03-10T11:21:14.304Z,0.55
2023-03-10T11:23:20.984Z,0.60
2023-03-10T11:25:31.726Z,1.20
2023-03-10T11:27:37.391Z,0.82
2023-03-10T11:29:43.003Z,1.00
2023-03-10T11:31:51.519Z,2.67
2023-03-10T11:34:04.160Z,1.00
2023-03-10T11:36:20.857Z,0.65
2023-03-10T11:38:29.114Z,0.98
2023-03-10T11:40:41.400Z,1.75
2023-03-10T11:42:50.798Z,1.88
2023-03-10T11:45:02.872Z,1.00
2023-03-10T11:47:05.953Z,2.58
2023-03-10T11:49:12.315Z,2.05
2023-03-10T11:51:26.746Z,2.20
2023-03-10T11:53:32.908Z,0.50
2023-03-10T11:55:36.734Z,0.80
2023-03-10T11:57:44.500Z,1.17
2023-03-10T11:59:53.558Z,0.40
2023-03-10T12:01:59.275Z,0.45
2023-03-10T12:04:09.989Z,2.22
2023-03-10T12:06:19.838Z,2.85
2023-03-10T12:08:25.950Z,1.10
2023-03-10T12:10:29.605Z,0.22
2023-03-10T12:12:36.457Z,0.47
2023-03-10T12:14:39.722Z,0.38
2023-03-10T12:16:42.505Z,0.22
2023-03-10T12:18:45.048Z,2.75
2023-03-10T12:20:47.408Z,1.33
2023-03-10T12:22:51.790Z,0.70
2023-03-10T12:24:54.037Z,0.30
2023-03-10T12:27:02.085Z,0.55
2023-03-10T12:29:10.504Z,1.15
2023-03-10T12:31:35.609Z,1.48
2023-03-10T12:33:41.425Z,1.17
2023-03-10T12:35:48.469Z,1.30
2023-03-10T12:37:50.685Z,0.82
2023-03-10T12:39:52.923Z,0.93
2023-03-10T12:41:58.627Z,0.45
2023-03-10T12:44:04.350Z,11.07
2023-03-10T12:46:11.567Z,2.35
2023-03-10T12:48:19.998Z,0.98
2023-03-10T12:50:29.744Z,0.30
2023-03-10T12:52:36.637Z,1.00
2023-03-10T12:54:43.484Z,0.77
2023-03-10T12:56:59.718Z,1.95
2023-03-10T12:59:13.849Z,1.42
2023-03-10T13:01:22.842Z,4.05
2023-03-10T13:03:28.461Z,1.05
2023-03-10T13:05:34.227Z,1.63
2023-03-10T13:07:37.603Z,3.05
2023-03-10T13:09:43.860Z,2.20
2023-03-10T13:11:55.784Z,0.80
2023-03-10T13:14:03.601Z,1.02
2023-03-10T13:16:08.420Z,0.73
2023-03-10T13:18:16.847Z,5.65
2023-03-10T13:20:19.964Z,1.48
2023-03-10T13:22:22.105Z,2.47
2023-03-10T13:24:29.060Z,1.60
2023-03-10T13:26:31.808Z,3.70
2023-03-10T13:28:35.458Z,2.50
2023-03-10T13:30:37.832Z,0.93
2023-03-10T13:32:40.142Z,0.70
2023-03-10T13:34:42.488Z,2.35
2023-03-10T13:36:45.303Z,0.63
2023-03-10T13:38:47.760Z,3.60
2023-03-10T13:40:59.225Z,1.38
2023-03-10T13:43:01.720Z,1.83
2023-03-10T13:45:17.464Z,1.58
2023-03-10T13:47:23.559Z,0.60
2023-03-10T13:49:31.405Z,2.50
2023-03-10T13:51:36.215Z,0.63
2023-03-10T13:53:38.377Z,4.57
2023-03-10T13:55:42.655Z,1.50
2023-03-10T13:57:46.640Z,3.13
2023-03-10T13:59:49.546Z,0.80
2023-03-10T14:01:55.698Z,1.42
2023-03-10T14:04:06.140Z,0.70
2023-03-10T14:06:13.140Z,0.60
2023-03-10T14:08:19.578Z,0.77
2023-03-10T14:10:21.999Z,0.60
2023-03-10T14:12:37.529Z,0.70
2023-03-10T14:14:41.893Z,1.38
2023-03-10T14:16:45.722Z,0.85
2023-03-10T14:18:47.943Z,2.38
2023-03-10T14:20:50.142Z,0.95
2023-03-10T14:22:52.342Z,0.98
2023-03-10T14:24:57.723Z,1.00
2023-03-10T14:27:00.960Z,1.38
2023-03-10T14:29:09.922Z,1.30
2023-03-10T14:31:19.357Z,1.13
2023-03-10T14:33:21.834Z,1.50
2023-03-10T14:35:25.612Z,1.30
2023-03-10T14:37:27.850Z,0.35
2023-03-10T14:39:30.924Z,3.92
2023-03-10T14:41:33.422Z,3.05
2023-03-10T14:43:35.908Z,1.10
2023-03-10T14:45:41.158Z,4.45
2023-03-10T14:47:43.711Z,3.30
2023-03-10T14:49:46.642Z,1.17
2023-03-10T14:51:49.208Z,1.55
2023-03-10T14:53:51.493Z,1.55
2023-03-10T14:55:56.341Z,0.65
2023-03-10T14:58:02.445Z,0.70
2023-03-10T15:00:07.117Z,1.10
2023-03-10T15:02:19.479Z,1.58
2023-03-10T15:04:21.988Z,1.38
2023-03-10T15:06:24.203Z,0.70
2023-03-10T15:08:28.110Z,1.52
2023-03-10T15:10:36.239Z,4.15
2023-03-10T15:12:39.246Z,2.05
2023-03-10T15:14:44.824Z,2.42
2023-03-10T15:16:47.053Z,2.15
2023-03-10T15:18:49.463Z,2.17
2023-03-10T15:20:51.624Z,5.97
2023-03-10T15:22:53.847Z,0.80
2023-03-10T15:24:55.964Z,2.05
2023-03-10T15:26:58.280Z,3.92
2023-03-10T15:29:00.925Z,2.38
2023-03-10T15:31:03.323Z,0.75
2023-03-10T15:33:05.982Z,1.48
2023-03-10T15:35:09.600Z,1.48
2023-03-10T15:37:12.782Z,0.98
2023-03-10T15:39:29.004Z,2.47
2023-03-10T15:41:36.589Z,1.92
2023-03-10T15:43:38.808Z,1.88
2023-03-10T15:45:46.927Z,3.13
2023-03-10T15:47:49.445Z,2.38
2023-03-10T15:49:51.621Z,1.83
2023-03-10T15:51:53.903Z,3.17
2023-03-10T15:53:56.156Z,4.40
2023-03-10T15:55:58.225Z,3.22
2023-03-10T15:58:00.688Z,3.38
2023-03-10T16:00:03.693Z,3.45
2023-03-10T16:02:06.093Z,1.30
2023-03-10T16:04:08.434Z,3.28
2023-03-10T16:06:16.174Z,5.25
2023-03-10T16:08:19.494Z,3.80
2023-03-10T16:10:22.045Z,3.22
2023-03-10T16:12:24.278Z,4.22
2023-03-10T16:14:27.242Z,5.10
2023-03-10T16:16:29.637Z,5.00
2023-03-10T16:18:32.038Z,6.75
2023-03-10T16:20:34.292Z,3.13
2023-03-10T16:22:40.686Z,3.03
2023-03-10T16:24:43.590Z,1.88
2023-03-10T16:26:45.804Z,3.35
2023-03-10T16:28:53.223Z,1.58
2023-03-10T16:30:56.789Z,11.35
2023-03-10T16:33:01.055Z,2.33
2023-03-10T16:35:03.857Z,2.33
2023-03-10T16:37:08.297Z,4.32
2023-03-10T16:39:12.005Z,4.00
2023-03-10T16:41:14.508Z,1.83
2023-03-10T16:43:18.036Z,1.02
2023-03-10T16:45:20.451Z,3.63
2023-03-10T16:47:22.812Z,6.50
2023-03-10T16:49:25.372Z,3.55
2023-03-10T16:51:31.274Z,4.53
2023-03-10T16:53:33.650Z,4.10
2023-03-10T16:55:35.941Z,3.28
2023-03-10T16:57:38.323Z,2.22
2023-03-10T16:59:41.579Z,2.08
2023-03-10T17:01:44.782Z,3.88
2023-03-10T17:03:49.052Z,2.10
2023-03-10T17:05:54.181Z,4.03
2023-03-10T17:08:02.599Z,2.38
2023-03-10T17:10:05.336Z,1.75
2023-03-10T17:12:08.034Z,4.00
2023-03-10T17:14:14.385Z,2.10
2023-03-10T17:16:17.949Z,5.53
2023-03-10T17:18:20.189Z,4.72
2023-03-10T17:20:22.531Z,3.72
2023-03-10T17:22:25.120Z,6.57
2023-03-10T17:24:28.364Z,4.32
2023-03-10T17:26:30.900Z,3.97
2023-03-10T17:28:33.032Z,9.63
2023-03-10T17:30:35.669Z,7.22
2023-03-10T17:32:38.264Z,1.80
2023-03-10T17:34:41.582Z,4.45
2023-03-10T17:36:50.504Z,6.22
2023-03-10T17:38:54.454Z,7.95
2023-03-10T17:40:56.593Z,2.97
2023-03-10T17:43:08.396Z,3.35
2023-03-10T17:45:15.219Z,3.90
2023-03-10T17:47:17.375Z,5.00
2023-03-10T17:49:19.690Z,3.03
2023-03-10T17:51:26.093Z,3.38
2023-03-10T17:53:28.643Z,6.35
2023-03-10T17:55:30.701Z,2.67
2023-03-10T17:57:32.808Z,3.33
2023-03-10T17:59:39.207Z,4.55
2023-03-10T18:01:44.102Z,3.60
2023-03-10T18:03:48.351Z,6.40
2023-03-10T18:05:50.786Z,5.75
2023-03-10T18:07:53.902Z,4.50
2023-03-10T18:09:57.720Z,3.55
2023-03-10T18:11:59.795Z,4.85
2023-03-10T18:14:03.754Z,3.78
2023-03-10T18:16:08.137Z,2.63
2023-03-10T18:18:10.183Z,5.07
2023-03-10T18:20:14.985Z,6.30
2023-03-10T18:22:16.946Z,5.72
2023-03-10T18:24:19.051Z,5.05
2023-03-10T18:26:24.307Z,11.27
2023-03-10T18:28:27.126Z,2.33
2023-03-10T18:30:29.504Z,3.38
2023-03-10T18:32:31.655Z,6.43
2023-03-10T18:34:33.662Z,3.60
2023-03-10T18:36:36.038Z,5.07
2023-03-10T18:38:38.119Z,5.05
2023-03-10T18:40:41.028Z,5.85
2023-03-10T18:42:43.082Z,5.90
2023-03-10T18:44:46.722Z,8.15
2023-03-10T18:46:48.871Z,4.18
2023-03-10T18:48:55.705Z,3.80
2023-03-10T18:50:59.590Z,7.72
2023-03-10T18:53:01.826Z,7.07
2023-03-10T18:55:05.141Z,6.43
2023-03-10T18:57:07.162Z,5.82
2023-03-10T18:59:10.451Z,3.28
2023-03-10T19:01:14.568Z,5.45
2023-03-10T19:03:17.444Z,8.52
2023-03-10T19:05:19.716Z,4.32
2023-03-10T19:07:21.837Z,5.28
2023-03-10T19:09:24.599Z,7.93
2023-03-10T19:11:28.014Z,9.82
2023-03-10T19:13:30.585Z,6.97
2023-03-10T19:15:32.747Z,8.27
2023-03-10T19:17:36.361Z,5.70
2023-03-10T19:19:38.358Z,7.43
2023-03-10T19:21:40.402Z,9.82
2023-03-10T19:23:44.166Z,7.95
2023-03-10T19:25:46.259Z,6.32
2023-03-10T19:27:49.135Z,8.23
2023-03-10T19:29:52.733Z,8.55
2023-03-10T19:31:54.680Z,8.10
2023-03-10T19:33:56.746Z,13.02
2023-03-10T19:36:01.835Z,14.18
2023-03-10T19:38:05.744Z,6.47
2023-03-10T19:40:08.747Z,8.18
2023-03-10T19:42:11.769Z,9.57
2023-03-10T19:44:13.758Z,11.90
2023-03-10T19:46:16.649Z,12.75
2023-03-10T19:48:18.829Z,13.52
2023-03-10T19:50:21.616Z,7.35
2023-03-10T19:52:24.099Z,12.77
2023-03-10T19:54:26.076Z,8.23
2023-03-10T19:56:28.037Z,7.53
2023-03-10T19:58:31.472Z,11.13
2023-03-10T20:00:36.392Z,11.98
2023-03-10T20:02:42.206Z,7.63
2023-03-10T20:04:45.021Z,8.50
2023-03-10T20:06:46.997Z,13.77
2023-03-10T20:08:49.157Z,11.60
2023-03-10T20:10:51.178Z,7.03
2023-03-10T20:12:53.313Z,9.45
2023-03-10T20:14:58.794Z,11.43
2023-03-10T20:17:00.767Z,9.30
2023-03-10T20:19:02.965Z,12.43
2023-03-10T20:21:06.231Z,11.50
2023-03-10T20:23:08.745Z,8.18
2023-03-10T20:25:12.745Z,10.80
2023-03-10T20:27:14.720Z,11.45
2023-03-10T20:29:16.914Z,9.88
2023-03-10T20:31:21.495Z,11.05
2023-03-10T20:33:23.574Z,19.45
2023-03-10T20:35:26.770Z,17.80
2023-03-10T20:37:28.715Z,14.38
2023-03-10T20:39:30.709Z,13.18
2023-03-10T20:41:56.197Z,14.68
2023-03-10T20:43:58.182Z,13.63
2023-03-10T20:46:00.210Z,11.27
2023-03-10T20:48:02.288Z,10.73
2023-03-10T20:50:06.485Z,12.73
2023-03-10T20:52:08.413Z,13.00
2023-03-10T20:54:10.393Z,16.55
2023-03-10T20:56:14.409Z,11.57
2023-03-10T20:58:16.517Z,17.38
2023-03-10T21:00:21.364Z,15.02
2023-03-10T21:02:23.243Z,11.98
2023-03-10T21:04:27.564Z,11.52
2023-03-10T21:06:30.111Z,9.40
2023-03-10T21:08:32.066Z,8.88
2023-03-10T21:10:34.592Z,10.13
2023-03-10T21:12:36.565Z,13.68
2023-03-10T21:14:38.541Z,9.20
2023-03-10T21:16:42.160Z,7.65
2023-03-10T21:18:44.341Z,18.30
2023-03-10T21:20:46.424Z,8.05
2023-03-10T21:22:48.454Z,7.35
2023-03-10T21:24:50.935Z,9.13
2023-03-10T21:26:52.797Z,13.55
2023-03-10T21:28:54.711Z,11.55
2023-03-10T21:30:56.567Z,12.90
2023-03-10T21:32:58.798Z,10.48
2023-03-10T21:35:00.810Z,11.82
2023-03-10T21:37:02.845Z,10.13
2023-03-10T21:39:05.646Z,7.47
2023-03-10T21:41:09.057Z,11.48
2023-03-10T21:43:11.781Z,6.72
2023-03-10T21:45:16.652Z,8.40
2023-03-10T21:47:18.584Z,15.27
2023-03-10T21:49:20.526Z,13.88
2023-03-10T21:51:24.431Z,11.88
2023-03-10T21:53:27.091Z,12.57
2023-03-10T21:55:29.568Z,15.07
2023-03-10T21:57:31.634Z,10.65
2023-03-10T21:59:33.578Z,16.70
2023-03-10T22:01:35.744Z,14.07
2023-03-10T22:03:37.752Z,13.90
2023-03-10T22:05:39.698Z,9.98
2023-03-10T22:07:42.264Z,11.48
2023-03-10T22:09:44.149Z,11.93
2023-03-10T22:11:46.372Z,11.68
2023-03-10T22:13:48.690Z,8.77
2023-03-10T22:15:50.674Z,9.57
2023-03-10T22:17:54.511Z,8.88
2023-03-10T22:19:56.544Z,9.70
2023-03-10T22:21:58.654Z,8.35
2023-03-10T22:24:00.579Z,6.60
2023-03-10T22:26:02.512Z,11.23
2023-03-10T22:28:05.032Z,7.93
2023-03-10T22:30:08.802Z,7.30
2023-03-10T22:32:11.220Z,9.50
2023-03-10T22:34:13.261Z,6.55
2023-03-10T22:36:15.259Z,9.70
2023-03-10T22:38:17.933Z,7.10
2023-03-10T22:40:23.072Z,7.75
2023-03-10T22:42:25.169Z,7.63
2023-03-10T22:44:27.072Z,7.63
2023-03-10T22:46:29.140Z,6.55
2023-03-10T22:48:31.100Z,5.22
2023-03-10T22:50:36.659Z,7.30
2023-03-10T22:52:38.643Z,12.35
2023-03-10T22:54:40.644Z,12.55
2023-03-10T22:56:42.488Z,4.38
2023-03-10T22:58:44.541Z,8.48
2023-03-10T23:00:46.565Z,9.10
2023-03-10T23:02:50.149Z,9.02
2023-03-10T23:04:52.150Z,6.28
2023-03-10T23:06:54.171Z,32.80
2023-03-10T23:08:57.146Z,6.28
2023-03-10T23:10:59.131Z,5.25
2023-03-10T23:13:03.275Z,9.38
2023-03-10T23:15:12.182Z,12.25
2023-03-10T23:17:17.220Z,6.25
2023-03-10T23:19:19.795Z,7.15
2023-03-10T23:21:21.838Z,9.95
2023-03-10T23:23:24.007Z,9.30
2023-03-10T23:25:29.688Z,7.60
2023-03-10T23:27:31.655Z,4.57
2023-03-10T23:29:33.672Z,9.18
2023-03-10T23:31:35.757Z,5.15
2023-03-10T23:33:37.722Z,10.05
2023-03-10T23:35:39.770Z,4.53
2023-03-10T23:37:41.865Z,5.47
2023-03-10T23:39:43.710Z,8.70
2023-03-10T23:41:45.671Z,6.70
2023-03-10T23:43:47.812Z,8.82
2023-03-10T23:45:50.079Z,5.72
2023-03-10T23:47:53.293Z,7.90
2023-03-10T23:49:56.252Z,7.35
2023-03-10T23:51:58.183Z,12.68
2023-03-10T23:54:00.313Z,6.20
2023-03-10T23:56:02.171Z,7.38
2023-03-10T23:58:05.148Z,8.85
